Time;durP1;ratioP1;P1;durP2;ratioP2;P2;SDS_P1;SDS_P2;PMS_P1;PMS_P2;Temp;Humidity;BMP_temperature;BMP_pressure;BME280_temperature;BME280_humidity;BME280_pressure;Samples;Min_cycle;Max_cycle;Signal;HPM_P1;HPM_P2
2021/01/16 00:00:31;;;;;;;1999.90;999.90;;;1.70;99.90;;;;;;5037936;28;20558;-84
2021/01/16 00:02:56;;;;;;;1999.90;999.90;;;1.70;99.90;;;;;;5038642;28;20248;-84
2021/01/16 00:05:25;;;;;;;1999.90;999.90;;;1.60;99.90;;;;;;5021120;28;20189;-84
2021/01/16 00:08:08;;;;;;;1999.90;999.90;;;1.60;99.90;;;;;;5039071;28;20176;-84
2021/01/16 00:10:54;;;;;;;1999.90;999.90;;;1.70;99.90;;;;;;5038550;28;20241;-84
2021/01/16 00:13:22;;;;;;;1999.90;999.90;;;1.90;99.90;;;;;;5021811;28;20173;-84
2021/01/16 00:15:48;;;;;;;1999.90;999.90;;;1.90;99.90;;;;;;5020791;28;20193;-84
2021/01/16 00:18:20;;;;;;;1999.90;999.90;;;2.00;99.90;;;;;;5038564;28;20173;-84
2021/01/16 00:20:51;;;;;;;1999.90;999.90;;;2.00;99.90;;;;;;5038251;28;20172;-84
2021/01/16 00:23:18;;;;;;;1999.90;999.90;;;1.90;99.90;;;;;;5038654;28;20200;-84
2021/01/16 00:25:44;;;;;;;1999.90;999.90;;;1.80;99.90;;;;;;5038424;28;20169;-84
2021/01/16 00:28:24;;;;;;;1999.90;999.90;;;1.80;99.90;;;;;;5038321;28;20524;-84
2021/01/16 00:30:53;;;;;;;1999.90;999.90;;;1.80;99.90;;;;;;5020819;28;20275;-84
2021/01/16 00:33:20;;;;;;;1999.90;999.90;;;1.80;99.90;;;;;;5038421;28;20316;-84
2021/01/16 00:35:49;;;;;;;1999.90;999.90;;;1.90;99.90;;;;;;5039082;28;20548;-84
2021/01/16 00:38:16;;;;;;;1999.90;999.90;;;1.90;99.90;;;;;;5020511;28;20176;-84
2021/01/16 00:40:42;;;;;;;1999.90;999.90;;;1.90;99.90;;;;;;5038371;28;20165;-84
2021/01/16 00:43:13;;;;;;;1999.90;999.90;;;1.90;99.90;;;;;;5038535;28;20184;-84
2021/01/16 00:45:50;;;;;;;1999.90;999.90;;;1.90;99.90;;;;;;5038267;28;20565;-84
2021/01/16 00:48:19;;;;;;;1999.90;999.90;;;1.90;99.90;;;;;;5037744;28;20172;-84
2021/01/16 00:50:45;;;;;;;1999.90;999.90;;;1.90;99.90;;;;;;5038235;28;20161;-84
2021/01/16 00:53:11;;;;;;;1999.90;999.90;;;1.80;99.90;;;;;;5020928;28;20176;-84
2021/01/16 00:55:37;;;;;;;1999.90;999.90;;;1.80;99.90;;;;;;5038385;28;20555;-84
2021/01/16 00:58:14;;;;;;;1999.90;999.90;;;1.80;99.90;;;;;;5038140;28;20165;-84
2021/01/16 01:00:41;;;;;;;1999.90;999.90;;;1.80;99.90;;;;;;5037956;28;20400;-84
2021/01/16 01:03:07;;;;;;;1999.90;999.90;;;1.70;99.90;;;;;;5042429;28;20161;-84
2021/01/16 01:05:33;;;;;;;1999.90;999.90;;;1.70;99.90;;;;;;5042484;28;20188;-84
2021/01/16 01:07:59;;;;;;;1999.90;999.90;;;1.70;99.90;;;;;;5024583;28;20544;-84
2021/01/16 01:10:32;;;;;;;1999.90;999.90;;;1.70;99.90;;;;;;5041842;28;20169;-84
2021/01/16 01:12:58;;;;;;;1999.90;999.90;;;1.70;99.90;;;;;;5042377;28;20395;-84
2021/01/16 01:15:24;;;;;;;1999.90;999.90;;;1.70;99.90;;;;;;5042328;28;20193;-84
2021/01/16 01:17:58;;;;;;;1999.90;999.90;;;1.70;99.90;;;;;;5024801;28;20162;-84
2021/01/16 01:20:24;;;;;;;1999.90;999.90;;;1.80;99.90;;;;;;5041566;28;20392;-84
2021/01/16 01:22:50;;;;;;;1999.90;999.90;;;1.80;99.90;;;;;;5024292;28;20647;-84
2021/01/16 01:25:17;;;;;;;1999.90;999.90;;;1.80;99.90;;;;;;5042095;28;20173;-84
2021/01/16 01:27:47;;;;;;;1999.90;999.90;;;1.70;99.90;;;;;;5041785;28;20165;-84
2021/01/16 01:30:14;;;;;;;1999.90;999.90;;;1.80;99.90;;;;;;5024140;28;20179;-84
2021/01/16 01:32:41;;;;;;;1999.90;999.90;;;1.70;99.90;;;;;;5041948;28;20625;-84
2021/01/16 01:35:07;;;;;;;1999.90;999.90;;;1.80;99.90;;;;;;5024156;28;20264;-84
2021/01/16 01:37:33;;;;;;;1999.90;999.90;;;1.70;99.90;;;;;;5041353;28;20248;-84
2021/01/16 01:39:59;;;;;;;1999.90;999.90;;;1.60;99.90;;;;;;5041657;28;20578;-84
2021/01/16 01:42:24;;;;;;;1999.90;999.90;;;1.60;99.90;;;;;;5024289;28;20165;-84
2021/01/16 01:44:50;;;;;;;1999.90;999.90;;;1.70;99.90;;;;;;5041712;28;20189;-84
2021/01/16 01:47:17;;;;;;;1999.90;999.90;;;1.60;99.90;;;;;;5041119;28;20176;-84
2021/01/16 01:49:44;;;;;;;1999.90;999.90;;;1.60;99.90;;;;;;5023804;28;20655;-84
2021/01/16 01:52:11;;;;;;;1999.90;999.90;;;1.60;99.90;;;;;;5041848;28;20165;-84
2021/01/16 01:54:37;;;;;;;1999.90;999.90;;;1.60;99.90;;;;;;5040868;28;20200;-84
2021/01/16 01:57:08;;;;;;;1999.90;999.90;;;1.60;99.90;;;;;;5040851;28;20767;-84
2021/01/16 01:59:36;;;;;;;1999.90;999.90;;;1.60;99.90;;;;;;5023482;28;20189;-83
2021/01/16 02:02:03;;;;;;;1999.90;999.90;;;1.60;99.90;;;;;;5041627;28;20648;-84
2021/01/16 02:04:31;;;;;;;1999.90;999.90;;;1.50;99.90;;;;;;5023568;28;20216;-84
2021/01/16 02:07:00;;;;;;;1999.90;999.90;;;1.50;99.90;;;;;;5040918;28;20169;-84
2021/01/16 02:09:26;;;;;;;1999.90;999.90;;;1.50;99.90;;;;;;5022975;28;20196;-84
2021/01/16 02:11:53;;;;;;;1999.90;999.90;;;1.50;99.90;;;;;;5040806;28;20200;-84
2021/01/16 02:14:33;;;;;;;1999.90;999.90;;;1.60;99.90;;;;;;5023730;28;20193;-84
2021/01/16 02:17:04;;;;;;;1999.90;999.90;;;1.50;99.90;;;;;;5040821;28;20145;-84
2021/01/16 02:20:00;;;;;;;1999.90;999.90;;;1.50;99.90;;;;;;5041025;28;20146;-84
2021/01/16 02:22:30;;;;;;;1999.90;999.90;;;1.60;99.90;;;;;;5022775;28;20153;-84
2021/01/16 02:25:12;;;;;;;1999.90;999.90;;;1.60;99.90;;;;;;5040363;28;20176;-84
2021/01/16 02:27:50;;;;;;;1999.90;999.90;;;1.50;99.90;;;;;;5041210;28;20209;-84
2021/01/16 02:30:18;;;;;;;1999.90;999.90;;;1.60;99.90;;;;;;5040925;28;20180;-84
2021/01/16 02:32:46;;;;;;;1999.90;999.90;;;1.70;99.90;;;;;;5040918;28;20176;-84
2021/01/16 02:35:12;;;;;;;1999.90;999.90;;;1.60;99.90;;;;;;5039663;28;20196;-84
2021/01/16 02:37:41;;;;;;;1999.90;999.90;;;1.60;99.90;;;;;;5023177;28;20591;-84
2021/01/16 02:40:42;;;;;;;1999.90;999.90;;;1.60;99.90;;;;;;5040210;28;20169;-84
2021/01/16 02:43:31;;;;;;;1999.90;999.90;;;1.60;99.90;;;;;;5038555;28;20173;-84
2021/01/16 02:46:18;;;;;;;1999.90;999.90;;;1.60;99.90;;;;;;5040303;28;20183;-84
2021/01/16 02:48:56;;;;;;;1999.90;999.90;;;1.60;99.90;;;;;;5040193;28;20145;-83
2021/01/16 02:51:28;;;;;;;1999.90;999.90;;;1.70;99.90;;;;;;5040429;28;20157;-84
2021/01/16 02:53:54;;;;;;;1999.90;999.90;;;1.70;99.90;;;;;;5022265;28;20203;-84
2021/01/16 02:56:27;;;;;;;1999.90;999.90;;;1.70;99.90;;;;;;5022573;28;20247;-84
2021/01/16 02:58:53;;;;;;;1999.90;999.90;;;1.70;99.90;;;;;;5039998;28;20465;-84
2021/01/16 03:01:19;;;;;;;1999.90;999.90;;;1.70;99.90;;;;;;5022170;28;20175;-84
2021/01/16 03:03:44;;;;;;;1999.90;999.90;;;1.60;99.90;;;;;;5040641;28;20169;-84
2021/01/16 03:06:11;;;;;;;1999.90;999.90;;;1.60;99.90;;;;;;5040044;28;20679;-84
2021/01/16 03:08:38;;;;;;;1999.90;999.90;;;1.60;99.90;;;;;;5022555;28;20193;-84
2021/01/16 03:11:03;;;;;;;1999.90;999.90;;;1.60;99.90;;;;;;5021487;28;20591;-84
2021/01/16 03:13:31;;;;;;;1999.90;999.90;;;1.50;99.90;;;;;;5021535;28;20169;-84
2021/01/16 03:15:58;;;;;;;1999.90;999.90;;;1.50;99.90;;;;;;5022365;28;20505;-84
2021/01/16 03:18:24;;;;;;;1999.90;999.90;;;1.50;99.90;;;;;;5039388;28;20157;-84
2021/01/16 03:20:50;;;;;;;1999.90;999.90;;;1.50;99.90;;;;;;5022770;28;20521;-84
2021/01/16 03:23:16;;;;;;;1999.90;999.90;;;1.50;99.90;;;;;;5022335;28;20169;-84
2021/01/16 03:25:43;;;;;;;1999.90;999.90;;;1.50;99.90;;;;;;5038885;28;20167;-84
2021/01/16 03:28:09;;;;;;;1999.90;999.90;;;1.40;99.90;;;;;;5038913;28;20168;-84
2021/01/16 03:30:34;;;;;;;1999.90;999.90;;;1.40;99.90;;;;;;5021833;28;20168;-84
2021/01/16 03:33:00;;;;;;;1999.90;999.90;;;1.50;99.90;;;;;;5021502;28;20169;-84
2021/01/16 03:35:27;;;;;;;1999.90;999.90;;;1.50;99.90;;;;;;5039648;28;20707;-84
2021/01/16 03:37:55;;;;;;;1999.90;999.90;;;1.50;99.90;;;;;;5039119;28;20704;-84
2021/01/16 03:40:24;;;;;;;1999.90;999.90;;;1.50;99.90;;;;;;5039124;28;20659;-84
2021/01/16 03:42:49;;;;;;;1999.90;999.90;;;1.50;99.90;;;;;;5039154;28;20636;-84
2021/01/16 03:45:21;;;;;;;1999.90;999.90;;;1.60;99.90;;;;;;5022225;28;20177;-84
2021/01/16 03:47:47;;;;;;;1999.90;999.90;;;1.60;99.90;;;;;;5039959;28;20408;-84
2021/01/16 03:50:13;;;;;;;1999.90;999.90;;;1.70;99.90;;;;;;5021390;28;20658;-84
2021/01/16 03:52:40;;;;;;;1999.90;999.90;;;1.60;99.90;;;;;;5039456;28;20407;-84
2021/01/16 03:55:07;;;;;;;1999.90;999.90;;;1.60;99.90;;;;;;5039334;28;20962;-84
2021/01/16 03:57:33;;;;;;;1999.90;999.90;;;1.60;99.90;;;;;;5038963;28;20251;-84
2021/01/16 03:59:59;;;;;;;1999.90;999.90;;;1.50;99.90;;;;;;5021425;28;20592;-84
2021/01/16 04:02:27;;;;;;;1999.90;999.90;;;1.50;99.90;;;;;;5020708;28;20247;-84
2021/01/16 04:05:00;;;;;;;1999.90;999.90;;;1.50;99.90;;;;;;5039503;28;20440;-84
2021/01/16 04:07:26;;;;;;;1999.90;999.90;;;1.50;99.90;;;;;;5038822;28;20176;-84
2021/01/16 04:09:52;;;;;;;1999.90;999.90;;;1.50;99.90;;;;;;5039107;28;20165;-84
2021/01/16 04:12:17;;;;;;;1999.90;999.90;;;1.50;99.90;;;;;;5038674;28;20157;-84
2021/01/16 04:14:43;;;;;;;1999.90;999.90;;;1.50;99.90;;;;;;5038879;28;20451;-84
2021/01/16 04:17:10;;;;;;;1999.90;999.90;;;1.50;99.90;;;;;;5038581;28;20168;-84
2021/01/16 04:19:37;;;;;;;1999.90;999.90;;;1.50;99.90;;;;;;5039085;28;20547;-84
2021/01/16 04:22:03;;;;;;;1999.90;999.90;;;1.50;99.90;;;;;;5039187;28;20192;-84
2021/01/16 04:24:29;;;;;;;1999.90;999.90;;;1.50;99.90;;;;;;5038856;28;20264;-84
2021/01/16 04:26:55;;;;;;;1999.90;999.90;;;1.50;99.90;;;;;;5039006;28;20165;-84
2021/01/16 04:29:21;;;;;;;1999.90;999.90;;;1.50;99.90;;;;;;5038547;28;20257;-84
2021/01/16 04:31:48;;;;;;;1999.90;999.90;;;1.50;99.90;;;;;;5038670;28;20236;-84
2021/01/16 04:34:14;;;;;;;1999.90;999.90;;;1.50;99.90;;;;;;5038546;28;20458;-84
2021/01/16 04:36:40;;;;;;;1999.90;999.90;;;1.50;99.90;;;;;;5020034;28;20211;-84
2021/01/16 04:39:06;;;;;;;1999.90;999.90;;;1.50;99.90;;;;;;5039152;28;20168;-83
2021/01/16 04:41:34;;;;;;;1999.90;999.90;;;1.50;99.90;;;;;;5038652;28;20157;-84
2021/01/16 04:44:00;;;;;;;1999.90;999.90;;;1.40;99.90;;;;;;5038097;28;20157;-84
2021/01/16 04:46:27;;;;;;;1999.90;999.90;;;1.40;99.90;;;;;;5038672;28;20196;-84
2021/01/16 04:49:03;;;;;;;1999.90;999.90;;;1.40;99.90;;;;;;5038165;28;20169;-84
2021/01/16 04:51:44;;;;;;;1999.90;999.90;;;1.40;99.90;;;;;;5038770;28;20156;-84
2021/01/16 04:54:17;;;;;;;1999.90;999.90;;;1.40;99.90;;;;;;5020418;28;20248;-84
2021/01/16 04:56:43;;;;;;;1999.90;999.90;;;1.40;99.90;;;;;;5038026;28;20161;-84
2021/01/16 04:59:09;;;;;;;1999.90;999.90;;;1.40;99.90;;;;;;5037989;28;20177;-84
2021/01/16 05:01:35;;;;;;;1999.90;999.90;;;1.40;99.90;;;;;;5020568;28;20231;-84
2021/01/16 05:04:01;;;;;;;1999.90;999.90;;;1.40;99.90;;;;;;5038800;28;20404;-84
2021/01/16 05:06:29;;;;;;;1999.90;999.90;;;1.40;99.90;;;;;;5036632;28;20567;-84
2021/01/16 05:08:56;;;;;;;1999.90;999.90;;;1.40;99.90;;;;;;5037683;28;20404;-84
2021/01/16 05:11:25;;;;;;;1999.90;999.90;;;1.40;99.90;;;;;;5020114;28;20204;-84
2021/01/16 05:14:19;;;;;;;1999.90;999.90;;;1.50;99.90;;;;;;5037642;28;20165;-84
2021/01/16 05:16:56;;;;;;;1999.90;999.90;;;1.50;99.90;;;;;;5015082;28;20195;-84
2021/01/16 05:19:29;;;;;;;1999.90;999.90;;;1.50;99.90;;;;;;5021000;28;20164;-84
2021/01/16 05:21:55;;;;;;;1999.90;999.90;;;1.50;99.90;;;;;;5020390;28;20169;-84
2021/01/16 05:24:21;;;;;;;1999.90;999.90;;;1.40;99.90;;;;;;5038187;28;20663;-84
2021/01/16 05:27:03;;;;;;;1999.90;999.90;;;1.50;99.90;;;;;;5036095;28;20177;-84
2021/01/16 05:29:30;;;;;;;1999.90;999.90;;;1.60;99.90;;;;;;5038742;28;20157;-84
2021/01/16 05:31:59;;;;;;;1999.90;999.90;;;1.60;99.90;;;;;;5038001;28;20165;-84
2021/01/16 05:34:26;;;;;;;1999.90;999.90;;;1.60;99.90;;;;;;5037731;28;20280;-84
2021/01/16 05:36:53;;;;;;;1999.90;999.90;;;1.50;99.90;;;;;;5019904;28;20169;-84
2021/01/16 05:39:20;;;;;;;1999.90;999.90;;;1.50;99.90;;;;;;5037739;28;20161;-84
2021/01/16 05:41:46;;;;;;;1999.90;999.90;;;1.60;99.90;;;;;;5020468;28;20176;-84
2021/01/16 05:44:13;;;;;;;1999.90;999.90;;;1.60;99.90;;;;;;5020050;28;20166;-84
2021/01/16 05:46:44;;;;;;;1999.90;999.90;;;1.50;99.90;;;;;;5019411;28;20165;-83
2021/01/16 05:49:16;;;;;;;1999.90;999.90;;;1.50;99.90;;;;;;5023768;28;20672;-84
2021/01/16 05:51:46;;;;;;;1999.90;999.90;;;1.50;99.90;;;;;;5023352;28;20291;-84
2021/01/16 05:54:13;;;;;;;1999.90;999.90;;;1.50;99.90;;;;;;5041759;28;20221;-84
2021/01/16 05:56:41;;;;;;;1999.90;999.90;;;1.60;99.90;;;;;;5041537;28;20240;-84
2021/01/16 05:59:11;;;;;;;1999.90;999.90;;;1.60;99.90;;;;;;5100224;23;20232;-82
2021/01/16 06:01:38;;;;;;;1999.90;999.90;;;1.50;99.90;;;;;;5022154;28;20161;-82
2021/01/16 06:04:13;;;;;;;1999.90;999.90;;;1.50;99.90;;;;;;5021583;28;20220;-81
2021/01/16 06:06:39;;;;;;;1999.90;999.90;;;1.50;99.90;;;;;;5004536;28;20157;-81
2021/01/16 06:09:05;;;;;;;1999.90;999.90;;;1.50;99.90;;;;;;5003863;28;20170;-81
2021/01/16 06:11:38;;;;;;;1999.90;999.90;;;1.50;99.90;;;;;;5021030;28;20711;-81
2021/01/16 06:14:09;;;;;;;1999.90;999.90;;;1.50;99.90;;;;;;5003732;28;20421;-81
2021/01/16 06:16:49;;;;;;;1999.90;999.90;;;1.50;99.90;;;;;;5022419;28;20166;-81
2021/01/16 06:19:36;;;;;;;1999.90;999.90;;;1.50;99.90;;;;;;5003708;28;20172;-81
2021/01/16 06:22:10;;;;;;;1999.90;999.90;;;1.50;99.90;;;;;;5021272;28;20154;-81
2021/01/16 06:24:37;;;;;;;1999.90;999.90;;;1.40;99.90;;;;;;5003819;28;20170;-82
2021/01/16 06:27:04;;;;;;;1999.90;999.90;;;1.40;99.90;;;;;;5003520;28;20220;-82
2021/01/16 06:29:35;;;;;;;1999.90;999.90;;;1.50;99.90;;;;;;5021720;28;20219;-80
2021/01/16 06:32:09;;;;;;;1999.90;999.90;;;1.50;99.90;;;;;;5003803;28;20180;-81
2021/01/16 06:34:40;;;;;;;1999.90;999.90;;;1.50;99.90;;;;;;5021252;28;20189;-81
2021/01/16 06:37:17;;;;;;;1999.90;999.90;;;1.40;99.90;;;;;;5020632;28;20671;-82
2021/01/16 06:39:45;;;;;;;1999.90;999.90;;;1.40;99.90;;;;;;5021144;28;20155;-82
2021/01/16 06:42:21;;;;;;;1999.90;999.90;;;1.50;99.90;;;;;;5003422;28;20170;-81
2021/01/16 06:44:48;;;;;;;1999.90;999.90;;;1.50;99.90;;;;;;5002950;28;20166;-81
2021/01/16 06:47:13;;;;;;;1999.90;999.90;;;1.40;99.90;;;;;;5021033;28;20170;-81
2021/01/16 06:49:42;;;;;;;1999.90;999.90;;;1.40;99.90;;;;;;5021028;28;20228;-81
2021/01/16 06:52:11;;;;;;;1999.90;999.90;;;1.50;99.90;;;;;;5020352;28;20231;-81
2021/01/16 06:54:38;;;;;;;1999.90;999.90;;;1.50;99.90;;;;;;5020680;28;20197;-81
2021/01/16 06:57:04;;;;;;;1999.90;999.90;;;1.50;99.90;;;;;;5002944;28;20253;-81
2021/01/16 06:59:30;;;;;;;1999.90;999.90;;;1.50;99.90;;;;;;5019332;28;20181;-81
2021/01/16 07:01:59;;;;;;;1999.90;999.90;;;1.40;99.90;;;;;;5003191;28;20177;-81
2021/01/16 07:04:30;;;;;;;1999.90;999.90;;;1.40;99.90;;;;;;5003242;28;20162;-81
2021/01/16 07:07:02;;;;;;;1999.90;999.90;;;1.50;99.90;;;;;;5002506;28;20201;-82
2021/01/16 07:09:33;;;;;;;1999.90;999.90;;;1.40;99.90;;;;;;5019928;28;20164;-81
2021/01/16 07:12:01;;;;;;;1999.90;999.90;;;1.40;99.90;;;;;;5020855;28;20613;-81
2021/01/16 07:14:27;;;;;;;1999.90;999.90;;;1.40;99.90;;;;;;5021021;28;22109;-81
2021/01/16 07:16:54;;;;;;;1999.90;999.90;;;1.40;99.90;;;;;;5020018;28;20621;-81
2021/01/16 07:19:21;;;;;;;1999.90;999.90;;;1.40;99.90;;;;;;5020113;28;20412;-81
2021/01/16 07:21:48;;;;;;;1999.90;999.90;;;1.50;99.90;;;;;;5003188;28;20208;-81
2021/01/16 07:24:15;;;;;;;1999.90;999.90;;;1.60;99.90;;;;;;5020805;28;20165;-81
2021/01/16 07:26:44;;;;;;;1999.90;999.90;;;1.60;99.90;;;;;;5020283;28;20506;-81
2021/01/16 07:29:10;;;;;;;1999.90;999.90;;;1.60;99.90;;;;;;5020395;28;20185;-81
2021/01/16 07:31:42;;;;;;;1999.90;999.90;;;1.50;99.90;;;;;;5019793;28;20193;-81
2021/01/16 07:34:08;;;;;;;1999.90;999.90;;;1.50;99.90;;;;;;5020180;28;20220;-81
2021/01/16 07:36:42;;;;;;;1999.90;999.90;;;1.60;99.90;;;;;;5002331;28;20174;-81
2021/01/16 07:39:10;;;;;;;1999.90;999.90;;;1.60;99.90;;;;;;5002508;28;20440;-81
2021/01/16 07:41:38;;;;;;;1999.90;999.90;;;1.60;99.90;;;;;;5019688;28;20162;-81
2021/01/16 07:44:07;;;;;;;1999.90;999.90;;;1.60;99.90;;;;;;5020914;28;20150;-82
2021/01/16 07:46:34;;;;;;;1999.90;999.90;;;1.60;99.90;;;;;;5004668;28;20253;-81
2021/01/16 07:49:02;;;;;;;1999.90;999.90;;;1.60;99.90;;;;;;5002433;28;20707;-81
2021/01/16 07:51:33;;;;;;;1999.90;999.90;;;1.70;99.90;;;;;;5020728;28;20166;-81
2021/01/16 07:54:07;;;;;;;1999.90;999.90;;;1.60;99.90;;;;;;5019887;28;20166;-81
2021/01/16 07:56:52;;;;;;;1999.90;999.90;;;1.60;99.90;;;;;;5019389;28;20661;-81
2021/01/16 07:59:23;;;;;;;1999.90;999.90;;;1.60;99.90;;;;;;5020040;28;20184;-81
2021/01/16 08:02:19;;;;;;;1999.90;999.90;;;1.60;99.90;;;;;;5019909;28;20641;-81
2021/01/16 08:05:06;;;;;;;1999.90;999.90;;;1.60;99.90;;;;;;5002051;28;20166;-81
2021/01/16 08:07:38;;;;;;;1999.90;999.90;;;1.60;99.90;;;;;;5020219;28;20200;-81
2021/01/16 08:10:06;;;;;;;1999.90;999.90;;;1.50;99.90;;;;;;5001522;28;20182;-81
2021/01/16 08:12:35;;;;;;;1999.90;999.90;;;1.50;99.90;;;;;;5019568;28;20220;-81
2021/01/16 08:15:04;;;;;;;1999.90;999.90;;;1.60;99.90;;;;;;5002436;28;20194;-81
2021/01/16 08:17:42;;;;;;;1999.90;999.90;;;1.60;99.90;;;;;;5001783;28;20197;-80
2021/01/16 08:20:34;;;;;;;1999.90;999.90;;;1.50;99.90;;;;;;5019860;28;20158;-81
2021/01/16 08:23:09;;;;;;;1999.90;999.90;;;1.60;99.90;;;;;;5003654;28;20212;-81
2021/01/16 08:25:34;;;;;;;1999.90;999.90;;;1.60;99.90;;;;;;5020158;28;20208;-81
2021/01/16 08:28:01;;;;;;;1999.90;999.90;;;1.70;99.90;;;;;;5018088;28;20170;-82
2021/01/16 08:30:29;;;;;;;1999.90;999.90;;;1.70;99.90;;;;;;5019077;28;20177;-82
2021/01/16 08:32:56;;;;;;;1999.90;999.90;;;1.80;99.90;;;;;;5018733;28;20233;-82
2021/01/16 08:35:45;;;;;;;1999.90;999.90;;;1.70;99.90;;;;;;5000931;28;20220;-82
2021/01/16 08:38:30;;;;;;;1999.90;999.90;;;1.60;99.90;;;;;;5000826;28;20541;-82
2021/01/16 08:41:08;;;;;;;1999.90;999.90;;;1.60;99.90;;;;;;5001098;28;20178;-82
2021/01/16 08:43:35;;;;;;;1999.90;999.90;;;1.60;99.90;;;;;;5017476;28;20154;-81
2021/01/16 08:46:08;;;;;;;1999.90;999.90;;;1.60;99.90;;;;;;5018675;28;20205;-82
2021/01/16 08:48:34;;;;;;;1999.90;999.90;;;1.60;99.90;;;;;;5000688;28;20657;-82
2021/01/16 08:51:09;;;;;;;1999.90;999.90;;;1.60;99.90;;;;;;5001072;28;20177;-82
2021/01/16 08:53:38;;;;;;;1999.90;999.90;;;1.60;99.90;;;;;;5018853;28;20204;-82
2021/01/16 08:56:23;;;;;;;1999.90;999.90;;;1.60;99.90;;;;;;5001041;28;20200;-81
2021/01/16 08:58:50;;;;;;;1999.90;999.90;;;1.60;99.90;;;;;;5018506;28;20182;-82
2021/01/16 09:01:19;;;;;;;1999.90;999.90;;;1.70;99.90;;;;;;5018810;28;20181;-81
2021/01/16 09:03:50;;;;;;;1999.90;999.90;;;1.80;99.90;;;;;;5000377;28;20264;-82
2021/01/16 09:06:18;;;;;;;1999.90;999.90;;;1.90;99.90;;;;;;5000688;28;20178;-82
2021/01/16 09:08:47;;;;;;;1999.90;999.90;;;1.90;99.90;;;;;;5018104;28;20166;-81
2021/01/16 09:11:13;;;;;;;1999.90;999.90;;;2.00;99.90;;;;;;5018276;28;20230;-81
2021/01/16 09:13:47;;;;;;;1999.90;999.90;;;1.90;99.90;;;;;;5018859;28;20166;-81
2021/01/16 09:16:33;;;;;;;1999.90;999.90;;;1.90;99.90;;;;;;5000872;28;20193;-82
2021/01/16 09:19:07;;;;;;;1999.90;999.90;;;1.80;99.90;;;;;;5000559;28;20178;-81
2021/01/16 09:21:41;;;;;;;1999.90;999.90;;;1.70;99.90;;;;;;5018328;28;20157;-82
2021/01/16 09:24:21;;;;;;;1999.90;999.90;;;1.80;99.90;;;;;;5022122;28;20196;-81
2021/01/16 09:26:50;;;;;;;1999.90;999.90;;;1.80;99.90;;;;;;5022236;28;20153;-81
2021/01/16 09:29:47;;;;;;;1999.90;999.90;;;1.80;99.90;;;;;;5022240;28;20166;-81
2021/01/16 09:32:38;;;;;;;1999.90;999.90;;;1.80;99.90;;;;;;5022377;28;20178;-81
2021/01/16 09:35:09;;;;;;;1999.90;999.90;;;1.80;99.90;;;;;;5005370;28;20190;-81
2021/01/16 09:38:10;;;;;;;1999.90;999.90;;;2.00;99.90;;;;;;5004591;28;20154;-81
2021/01/16 09:40:51;;;;;;;1999.90;999.90;;;1.90;99.90;;;;;;5002090;28;20170;-81
2021/01/16 09:43:21;;;;;;;1999.90;999.90;;;1.90;99.90;;;;;;5021652;28;20196;-81
2021/01/16 09:45:55;;;;;;;1999.90;999.90;;;1.90;99.90;;;;;;5004271;28;20272;-82
2021/01/16 09:48:50;;;;;;;1999.90;999.90;;;2.00;99.90;;;;;;5003924;28;20242;-82
2021/01/16 09:51:29;;;;;;;1999.90;999.90;;;2.00;99.90;;;;;;5022642;28;20517;-81
2021/01/16 09:54:32;;;;;;;1999.90;999.90;;;2.10;99.90;;;;;;5021577;28;20159;-81
2021/01/16 09:56:58;;;;;;;1999.90;999.90;;;2.00;99.90;;;;;;4999816;28;20186;-81
2021/01/16 09:59:24;;;;;;;1999.90;999.90;;;2.00;99.90;;;;;;5021427;28;20201;-81
2021/01/16 10:02:12;;;;;;;1999.90;999.90;;;1.90;99.90;;;;;;5021565;28;20166;-81
2021/01/16 10:04:44;;;;;;;1999.90;999.90;;;1.90;99.90;;;;;;5021432;28;20648;-80
2021/01/16 10:07:11;;;;;;;1999.90;999.90;;;1.80;99.90;;;;;;5003907;28;20208;-82
2021/01/16 10:10:11;;;;;;;1999.90;999.90;;;1.80;99.90;;;;;;5004335;28;20204;-81
2021/01/16 10:12:41;;;;;;;1999.90;999.90;;;1.90;99.90;;;;;;5003760;28;20184;-81
2021/01/16 10:15:13;;;;;;;1999.90;999.90;;;1.90;99.90;;;;;;5020882;28;20197;-81
2021/01/16 10:17:51;;;;;;;1999.90;999.90;;;1.90;99.90;;;;;;5021627;28;20155;-81
2021/01/16 10:20:20;;;;;;;1999.90;999.90;;;1.90;99.90;;;;;;5021381;28;20161;-80
2021/01/16 10:22:53;;;;;;;1999.90;999.90;;;1.90;99.90;;;;;;5021230;28;20162;-81
2021/01/16 10:25:36;;;;;;;1999.90;999.90;;;1.90;99.90;;;;;;5021469;28;20165;-81
2021/01/16 10:28:05;;;;;;;1999.90;999.90;;;2.00;99.90;;;;;;5021514;28;20610;-81
2021/01/16 10:30:39;;;;;;;1999.90;999.90;;;2.00;99.90;;;;;;5021605;28;20679;-81
2021/01/16 10:33:19;;;;;;;1999.90;999.90;;;2.00;99.90;;;;;;5020618;28;20154;-81
2021/01/16 10:36:12;;;;;;;1999.90;999.90;;;2.10;99.90;;;;;;5020676;28;20227;-81
2021/01/16 10:38:55;;;;;;;1999.90;999.90;;;2.00;99.90;;;;;;5021124;28;20518;-80
2021/01/16 10:41:37;;;;;;;1999.90;999.90;;;2.20;99.90;;;;;;5003505;28;20166;-80
2021/01/16 10:44:13;;;;;;;1999.90;999.90;;;2.20;99.90;;;;;;5021229;28;20169;-80
2021/01/16 10:46:40;;;;;;;1999.90;999.90;;;2.30;99.90;;;;;;5004786;28;20154;-80
2021/01/16 10:49:24;;;;;;;1999.90;999.90;;;2.30;99.90;;;;;;5003722;28;20251;-81
2021/01/16 10:51:54;;;;;;;1999.90;999.90;;;2.30;99.90;;;;;;5020597;28;20166;-80
2021/01/16 10:54:21;;;;;;;1999.90;999.90;;;2.30;99.90;;;;;;5003362;28;20166;-80
2021/01/16 10:57:01;;;;;;;1999.90;999.90;;;2.30;99.90;;;;;;5020536;28;20197;-80
2021/01/16 10:59:36;;;;;;;1999.90;999.90;;;2.30;99.90;;;;;;5021598;28;20228;-80
2021/01/16 11:02:35;;;;;;;1999.90;999.90;;;2.30;99.90;;;;;;5021384;28;20152;-80
2021/01/16 11:05:23;;;;;;;1999.90;999.90;;;2.20;99.90;;;;;;5015721;28;20186;-80
2021/01/16 11:07:50;;;;;;;1999.90;999.90;;;2.30;99.90;;;;;;5003516;28;20162;-80
2021/01/16 11:10:34;;;;;;;1999.90;999.90;;;2.30;99.90;;;;;;5021414;28;20172;-80
2021/01/16 11:13:24;;;;;;;1999.90;999.90;;;2.40;99.90;;;;;;5021555;28;20188;-81
2021/01/16 11:16:16;;;;;;;1999.90;999.90;;;2.40;99.90;;;;;;5020281;28;20186;-81
2021/01/16 11:18:43;;;;;;;1999.90;999.90;;;2.30;99.90;;;;;;4998016;28;20173;-81
2021/01/16 11:21:11;;;;;;;1999.90;999.90;;;2.40;99.90;;;;;;5019538;28;20166;-81
2021/01/16 11:23:49;;;;;;;1999.90;999.90;;;2.50;99.90;;;;;;5003299;28;20166;-81
2021/01/16 11:26:16;;;;;;;1999.90;999.90;;;2.60;99.90;;;;;;5002704;28;20165;-81
2021/01/16 11:28:57;;;;;;;1999.90;999.90;;;2.60;99.90;;;;;;5002400;28;20540;-81
2021/01/16 11:31:29;;;;;;;1999.90;999.90;;;2.60;99.90;;;;;;5020955;28;20241;-82
2021/01/16 11:34:25;;;;;;;1999.90;999.90;;;2.70;99.90;;;;;;5002346;28;20192;-81
2021/01/16 11:37:06;;;;;;;1999.90;999.90;;;2.50;99.90;;;;;;4999515;28;20189;-82
2021/01/16 11:39:51;;;;;;;1999.90;999.90;;;2.60;99.90;;;;;;5002736;28;20648;-82
2021/01/16 11:42:24;;;;;;;1999.90;999.90;;;2.70;99.90;;;;;;5020424;28;20154;-81
2021/01/16 11:45:01;;;;;;;1999.90;999.90;;;2.70;99.90;;;;;;5018455;28;20257;-82
2021/01/16 11:47:47;;;;;;;1999.90;999.90;;;2.70;99.90;;;;;;5020342;28;20158;-81
2021/01/16 11:50:17;;;;;;;1999.90;999.90;;;2.80;99.90;;;;;;5020472;28;20154;-81
2021/01/16 11:52:43;;;;;;;1999.90;999.90;;;2.80;99.90;;;;;;5003721;28;20158;-81
2021/01/16 11:55:13;;;;;;;1999.90;999.90;;;2.80;99.90;;;;;;5020050;28;20208;-82
2021/01/16 11:57:46;;;;;;;1999.90;999.90;;;2.80;99.90;;;;;;5003613;28;20252;-82
2021/01/16 12:00:18;;;;;;;1999.90;999.90;;;2.80;99.90;;;;;;5052185;23;20724;-83
2021/01/16 12:03:00;;;;;;;1999.90;999.90;;;2.70;99.90;;;;;;5001872;28;20161;-83
2021/01/16 12:05:26;;;;;;;1999.90;999.90;;;2.70;99.90;;;;;;5001526;28;20178;-84
2021/01/16 12:07:56;;;;;;;1999.90;999.90;;;2.80;99.90;;;;;;5001317;28;20159;-83
2021/01/16 12:10:22;;;;;;;1999.90;999.90;;;2.80;99.90;;;;;;5001036;28;20155;-83
2021/01/16 12:12:50;;;;;;;1999.90;999.90;;;2.70;99.90;;;;;;5001085;28;20172;-83
2021/01/16 12:15:20;;;;;;;1999.90;999.90;;;2.80;99.90;;;;;;4983667;28;20241;-84
2021/01/16 12:17:48;;;;;;;1999.90;999.90;;;2.90;99.90;;;;;;5001559;28;20163;-83
2021/01/16 12:20:17;;;;;;;1999.90;999.90;;;2.70;99.90;;;;;;4983103;28;20171;-83
2021/01/16 12:22:45;;;;;;;1999.90;999.90;;;2.70;99.90;;;;;;4983334;28;20190;-83
2021/01/16 12:25:12;;;;;;;1999.90;999.90;;;2.70;99.90;;;;;;4999281;28;20173;-83
2021/01/16 12:27:47;;;;;;;1999.90;999.90;;;2.60;99.90;;;;;;5001297;28;20182;-83
2021/01/16 12:30:13;;;;;;;1999.90;999.90;;;2.60;99.90;;;;;;5000964;28;20170;-83